sensor_id;sensor_type;location;lat;lon;timestamp;temperature;humidity
12907;DHT22;6521;50.498;8.474;2023-04-21T00:01:10;6.90;92.49
12907;DHT22;6521;50.498;8.474;2023-04-21T00:03:41;6.92;92.55
12907;DHT22;6521;50.498;8.474;2023-04-21T00:06:12;6.92;92.46
12907;DHT22;6521;50.498;8.474;2023-04-21T00:08:43;6.89;92.43
12907;DHT22;6521;50.498;8.474;2023-04-21T00:11:14;6.86;92.46
12907;DHT22;6521;50.498;8.474;2023-04-21T00:13:45;6.86;92.62
12907;DHT22;6521;50.498;8.474;2023-04-21T00:16:16;6.87;92.60
12907;DHT22;6521;50.498;8.474;2023-04-21T00:18:47;6.86;92.67
12907;DHT22;6521;50.498;8.474;2023-04-21T00:21:17;6.89;92.65
12907;DHT22;6521;50.498;8.474;2023-04-21T00:23:48;6.90;92.63
12907;DHT22;6521;50.498;8.474;2023-04-21T00:26:19;6.93;92.74
12907;DHT22;6521;50.498;8.474;2023-04-21T00:28:52;6.96;92.76
12907;DHT22;6521;50.498;8.474;2023-04-21T00:31:23;6.97;92.64
12907;DHT22;6521;50.498;8.474;2023-04-21T00:33:54;6.99;92.77
12907;DHT22;6521;50.498;8.474;2023-04-21T00:36:26;7.03;92.72
12907;DHT22;6521;50.498;8.474;2023-04-21T00:38:58;7.05;92.71
12907;DHT22;6521;50.498;8.474;2023-04-21T00:41:28;7.07;92.66
12907;DHT22;6521;50.498;8.474;2023-04-21T00:44:07;7.05;92.68
12907;DHT22;6521;50.498;8.474;2023-04-21T00:46:38;7.10;92.72
12907;DHT22;6521;50.498;8.474;2023-04-21T00:49:09;7.07;92.63
12907;DHT22;6521;50.498;8.474;2023-04-21T00:51:41;7.08;92.72
12907;DHT22;6521;50.498;8.474;2023-04-21T00:54:12;7.13;92.74
12907;DHT22;6521;50.498;8.474;2023-04-21T00:56:43;7.14;92.75
12907;DHT22;6521;50.498;8.474;2023-04-21T00:59:14;7.13;92.68
12907;DHT22;6521;50.498;8.474;2023-04-21T01:01:45;7.13;92.59
12907;DHT22;6521;50.498;8.474;2023-04-21T01:04:16;7.14;92.66
12907;DHT22;6521;50.498;8.474;2023-04-21T01:06:46;7.10;92.71
12907;DHT22;6521;50.498;8.474;2023-04-21T01:09:18;7.11;92.66
12907;DHT22;6521;50.498;8.474;2023-04-21T01:12:06;7.08;92.75
12907;DHT22;6521;50.498;8.474;2023-04-21T01:14:39;7.11;92.77
12907;DHT22;6521;50.498;8.474;2023-04-21T01:17:10;7.07;92.85
12907;DHT22;6521;50.498;8.474;2023-04-21T01:19:42;7.10;92.90
12907;DHT22;6521;50.498;8.474;2023-04-21T01:22:13;7.04;92.85
12907;DHT22;6521;50.498;8.474;2023-04-21T01:24:46;7.04;93.00
12907;DHT22;6521;50.498;8.474;2023-04-21T01:27:19;7.07;93.04
12907;DHT22;6521;50.498;8.474;2023-04-21T01:29:51;7.10;93.07
12907;DHT22;6521;50.498;8.474;2023-04-21T01:32:27;7.08;93.06
12907;DHT22;6521;50.498;8.474;2023-04-21T01:34:59;7.11;93.07
12907;DHT22;6521;50.498;8.474;2023-04-21T01:37:31;7.13;93.08
12907;DHT22;6521;50.498;8.474;2023-04-21T01:40:05;7.14;93.06
12907;DHT22;6521;50.498;8.474;2023-04-21T01:42:38;7.14;93.07
12907;DHT22;6521;50.498;8.474;2023-04-21T01:45:10;7.15;93.05
12907;DHT22;6521;50.498;8.474;2023-04-21T01:47:41;7.13;93.10
12907;DHT22;6521;50.498;8.474;2023-04-21T01:50:12;7.15;93.07
12907;DHT22;6521;50.498;8.474;2023-04-21T01:52:46;7.10;93.07
12907;DHT22;6521;50.498;8.474;2023-04-21T01:55:19;7.13;93.09
12907;DHT22;6521;50.498;8.474;2023-04-21T01:57:50;7.14;93.08
12907;DHT22;6521;50.498;8.474;2023-04-21T02:00:21;7.14;93.13
12907;DHT22;6521;50.498;8.474;2023-04-21T02:02:52;7.15;93.15
12907;DHT22;6521;50.498;8.474;2023-04-21T02:05:22;7.17;93.17
12907;DHT22;6521;50.498;8.474;2023-04-21T02:07:54;7.20;93.20
12907;DHT22;6521;50.498;8.474;2023-04-21T02:10:26;7.15;93.22
12907;DHT22;6521;50.498;8.474;2023-04-21T02:12:57;7.18;93.21
12907;DHT22;6521;50.498;8.474;2023-04-21T02:15:28;7.20;93.22
12907;DHT22;6521;50.498;8.474;2023-04-21T02:17:58;7.20;93.13
12907;DHT22;6521;50.498;8.474;2023-04-21T02:20:29;7.21;93.14
12907;DHT22;6521;50.498;8.474;2023-04-21T02:23:01;7.21;93.14
12907;DHT22;6521;50.498;8.474;2023-04-21T02:25:32;7.23;93.21
12907;DHT22;6521;50.498;8.474;2023-04-21T02:28:03;7.23;93.24
12907;DHT22;6521;50.498;8.474;2023-04-21T02:30:34;7.23;93.19
12907;DHT22;6521;50.498;8.474;2023-04-21T02:33:05;7.20;93.17
12907;DHT22;6521;50.498;8.474;2023-04-21T02:35:36;7.21;93.29
12907;DHT22;6521;50.498;8.474;2023-04-21T02:38:07;7.18;93.25
12907;DHT22;6521;50.498;8.474;2023-04-21T02:40:38;7.20;93.27
12907;DHT22;6521;50.498;8.474;2023-04-21T02:43:12;7.18;93.31
12907;DHT22;6521;50.498;8.474;2023-04-21T02:45:43;7.23;93.37
12907;DHT22;6521;50.498;8.474;2023-04-21T02:48:16;7.20;93.37
12907;DHT22;6521;50.498;8.474;2023-04-21T02:50:52;7.20;93.23
12907;DHT22;6521;50.498;8.474;2023-04-21T02:53:23;7.15;93.29
12907;DHT22;6521;50.498;8.474;2023-04-21T02:55:55;7.18;93.36
12907;DHT22;6521;50.498;8.474;2023-04-21T02:58:27;7.15;93.32
12907;DHT22;6521;50.498;8.474;2023-04-21T03:00:58;7.14;93.39
12907;DHT22;6521;50.498;8.474;2023-04-21T03:03:30;7.13;93.46
12907;DHT22;6521;50.498;8.474;2023-04-21T03:06:02;7.17;93.44
12907;DHT22;6521;50.498;8.474;2023-04-21T03:08:34;7.13;93.35
12907;DHT22;6521;50.498;8.474;2023-04-21T03:11:04;7.13;93.37
12907;DHT22;6521;50.498;8.474;2023-04-21T03:13:35;7.11;93.47
12907;DHT22;6521;50.498;8.474;2023-04-21T03:16:06;7.11;93.52
12907;DHT22;6521;50.498;8.474;2023-04-21T03:18:37;7.14;93.53
12907;DHT22;6521;50.498;8.474;2023-04-21T03:21:08;7.14;93.42
12907;DHT22;6521;50.498;8.474;2023-04-21T03:23:39;7.15;93.46
12907;DHT22;6521;50.498;8.474;2023-04-21T03:26:10;7.15;93.49
12907;DHT22;6521;50.498;8.474;2023-04-21T03:28:41;7.17;93.55
12907;DHT22;6521;50.498;8.474;2023-04-21T03:31:12;7.17;93.50
12907;DHT22;6521;50.498;8.474;2023-04-21T03:33:43;7.18;93.52
12907;DHT22;6521;50.498;8.474;2023-04-21T03:36:14;7.24;93.53
12907;DHT22;6521;50.498;8.474;2023-04-21T03:38:45;7.25;93.51
12907;DHT22;6521;50.498;8.474;2023-04-21T03:41:15;7.25;93.51
12907;DHT22;6521;50.498;8.474;2023-04-21T03:43:49;7.24;93.57
12907;DHT22;6521;50.498;8.474;2023-04-21T03:46:22;7.24;93.51
12907;DHT22;6521;50.498;8.474;2023-04-21T03:48:53;7.23;93.56
12907;DHT22;6521;50.498;8.474;2023-04-21T03:51:24;7.30;93.56
12907;DHT22;6521;50.498;8.474;2023-04-21T03:53:55;7.28;93.45
12907;DHT22;6521;50.498;8.474;2023-04-21T03:56:26;7.23;93.49
12907;DHT22;6521;50.498;8.474;2023-04-21T03:58:56;7.24;93.56
12907;DHT22;6521;50.498;8.474;2023-04-21T04:01:27;7.25;93.51
12907;DHT22;6521;50.498;8.474;2023-04-21T04:03:58;7.23;93.53
12907;DHT22;6521;50.498;8.474;2023-04-21T04:06:29;7.25;93.55
12907;DHT22;6521;50.498;8.474;2023-04-21T04:09:00;7.28;93.54
12907;DHT22;6521;50.498;8.474;2023-04-21T04:11:34;7.27;93.57
12907;DHT22;6521;50.498;8.474;2023-04-21T04:14:04;7.28;93.60
12907;DHT22;6521;50.498;8.474;2023-04-21T04:16:35;7.30;93.64
12907;DHT22;6521;50.498;8.474;2023-04-21T04:19:07;7.32;93.62
12907;DHT22;6521;50.498;8.474;2023-04-21T04:21:38;7.31;93.70
12907;DHT22;6521;50.498;8.474;2023-04-21T04:24:08;7.35;93.68
12907;DHT22;6521;50.498;8.474;2023-04-21T04:26:40;7.34;93.68
12907;DHT22;6521;50.498;8.474;2023-04-21T04:29:12;7.36;93.70
12907;DHT22;6521;50.498;8.474;2023-04-21T04:31:43;7.40;93.65
12907;DHT22;6521;50.498;8.474;2023-04-21T04:34:14;7.38;93.73
12907;DHT22;6521;50.498;8.474;2023-04-21T04:36:45;7.38;93.75
12907;DHT22;6521;50.498;8.474;2023-04-21T04:39:17;7.36;93.69
12907;DHT22;6521;50.498;8.474;2023-04-21T04:41:48;7.42;93.71
12907;DHT22;6521;50.498;8.474;2023-04-21T04:44:19;7.45;93.67
12907;DHT22;6521;50.498;8.474;2023-04-21T04:46:50;7.40;93.61
12907;DHT22;6521;50.498;8.474;2023-04-21T04:49:22;7.42;93.64
12907;DHT22;6521;50.498;8.474;2023-04-21T04:51:52;7.42;93.62
12907;DHT22;6521;50.498;8.474;2023-04-21T04:54:23;7.42;93.63
12907;DHT22;6521;50.498;8.474;2023-04-21T04:56:55;7.44;93.69
12907;DHT22;6521;50.498;8.474;2023-04-21T04:59:27;7.42;93.63
12907;DHT22;6521;50.498;8.474;2023-04-21T05:01:58;7.45;93.67
12907;DHT22;6521;50.498;8.474;2023-04-21T05:04:28;7.50;93.72
12907;DHT22;6521;50.498;8.474;2023-04-21T05:06:59;7.52;93.77
12907;DHT22;6521;50.498;8.474;2023-04-21T05:09:30;7.55;93.72
12907;DHT22;6521;50.498;8.474;2023-04-21T05:12:01;7.58;93.76
12907;DHT22;6521;50.498;8.474;2023-04-21T05:14:33;7.56;93.64
12907;DHT22;6521;50.498;8.474;2023-04-21T05:17:03;7.61;93.57
12907;DHT22;6521;50.498;8.474;2023-04-21T05:19:35;7.58;93.55
12907;DHT22;6521;50.498;8.474;2023-04-21T05:22:07;7.58;93.50
12907;DHT22;6521;50.498;8.474;2023-04-21T05:24:40;7.61;93.48
12907;DHT22;6521;50.498;8.474;2023-04-21T05:27:11;7.63;93.51
12907;DHT22;6521;50.498;8.474;2023-04-21T05:29:41;7.61;93.55
12907;DHT22;6521;50.498;8.474;2023-04-21T05:32:12;7.63;93.45
12907;DHT22;6521;50.498;8.474;2023-04-21T05:34:43;7.62;93.50
12907;DHT22;6521;50.498;8.474;2023-04-21T05:37:14;7.65;93.40
12907;DHT22;6521;50.498;8.474;2023-04-21T05:39:45;7.69;93.52
12907;DHT22;6521;50.498;8.474;2023-04-21T05:42:16;7.73;93.51
12907;DHT22;6521;50.498;8.474;2023-04-21T05:44:47;7.76;93.51
12907;DHT22;6521;50.498;8.474;2023-04-21T05:47:18;7.78;93.46
12907;DHT22;6521;50.498;8.474;2023-04-21T05:49:52;7.79;93.47
12907;DHT22;6521;50.498;8.474;2023-04-21T05:52:23;7.83;93.46
12907;DHT22;6521;50.498;8.474;2023-04-21T05:54:54;7.85;93.38
12907;DHT22;6521;50.498;8.474;2023-04-21T05:57:24;7.90;93.37
12907;DHT22;6521;50.498;8.474;2023-04-21T05:59:55;7.92;93.35
12907;DHT22;6521;50.498;8.474;2023-04-21T06:02:26;7.93;93.30
12907;DHT22;6521;50.498;8.474;2023-04-21T06:04:57;7.94;93.30
12907;DHT22;6521;50.498;8.474;2023-04-21T06:07:28;7.93;93.23
12907;DHT22;6521;50.498;8.474;2023-04-21T06:09:59;7.97;93.32
12907;DHT22;6521;50.498;8.474;2023-04-21T06:12:30;8.00;93.30
12907;DHT22;6521;50.498;8.474;2023-04-21T06:15:00;8.04;93.27
12907;DHT22;6521;50.498;8.474;2023-04-21T06:17:31;8.02;93.22
12907;DHT22;6521;50.498;8.474;2023-04-21T06:20:02;8.04;93.20
12907;DHT22;6521;50.498;8.474;2023-04-21T06:22:36;8.09;93.15
12907;DHT22;6521;50.498;8.474;2023-04-21T06:25:07;8.12;93.11
12907;DHT22;6521;50.498;8.474;2023-04-21T06:27:38;8.12;93.17
12907;DHT22;6521;50.498;8.474;2023-04-21T06:30:09;8.13;93.17
12907;DHT22;6521;50.498;8.474;2023-04-21T06:32:40;8.17;93.18
12907;DHT22;6521;50.498;8.474;2023-04-21T06:35:11;8.14;93.06
12907;DHT22;6521;50.498;8.474;2023-04-21T06:37:42;8.17;93.15
12907;DHT22;6521;50.498;8.474;2023-04-21T06:40:12;8.26;93.19
12907;DHT22;6521;50.498;8.474;2023-04-21T06:42:45;8.21;92.98
12907;DHT22;6521;50.498;8.474;2023-04-21T06:45:16;8.26;93.11
12907;DHT22;6521;50.498;8.474;2023-04-21T06:47:47;8.29;93.06
12907;DHT22;6521;50.498;8.474;2023-04-21T06:50:18;8.31;92.99
12907;DHT22;6521;50.498;8.474;2023-04-21T06:52:49;8.33;92.96
12907;DHT22;6521;50.498;8.474;2023-04-21T06:55:19;8.37;92.90
12907;DHT22;6521;50.498;8.474;2023-04-21T06:57:50;8.40;92.89
12907;DHT22;6521;50.498;8.474;2023-04-21T07:00:21;8.42;92.96
12907;DHT22;6521;50.498;8.474;2023-04-21T07:02:52;8.48;92.97
12907;DHT22;6521;50.498;8.474;2023-04-21T07:05:23;8.57;93.00
12907;DHT22;6521;50.498;8.474;2023-04-21T07:07:54;8.62;92.89
12907;DHT22;6521;50.498;8.474;2023-04-21T07:10:29;8.68;92.73
12907;DHT22;6521;50.498;8.474;2023-04-21T07:12:59;8.78;92.76
12907;DHT22;6521;50.498;8.474;2023-04-21T07:15:30;8.85;92.76
12907;DHT22;6521;50.498;8.474;2023-04-21T07:18:01;8.91;92.78
12907;DHT22;6521;50.498;8.474;2023-04-21T07:20:32;8.93;92.48
12907;DHT22;6521;50.498;8.474;2023-04-21T07:23:03;8.93;92.27
12907;DHT22;6521;50.498;8.474;2023-04-21T07:25:34;8.95;92.09
12907;DHT22;6521;50.498;8.474;2023-04-21T07:28:05;8.95;92.05
12907;DHT22;6521;50.498;8.474;2023-04-21T07:30:36;8.98;92.01
12907;DHT22;6521;50.498;8.474;2023-04-21T07:33:07;8.99;92.00
12907;DHT22;6521;50.498;8.474;2023-04-21T07:35:38;8.98;91.93
12907;DHT22;6521;50.498;8.474;2023-04-21T07:38:09;9.02;91.81
12907;DHT22;6521;50.498;8.474;2023-04-21T07:40:39;8.99;91.75
12907;DHT22;6521;50.498;8.474;2023-04-21T07:43:10;8.98;91.82
12907;DHT22;6521;50.498;8.474;2023-04-21T07:45:41;9.00;91.95
12907;DHT22;6521;50.498;8.474;2023-04-21T07:48:13;9.02;91.94
12907;DHT22;6521;50.498;8.474;2023-04-21T07:50:43;9.02;91.89
12907;DHT22;6521;50.498;8.474;2023-04-21T07:53:14;9.02;91.87
12907;DHT22;6521;50.498;8.474;2023-04-21T07:55:45;8.99;91.90
12907;DHT22;6521;50.498;8.474;2023-04-21T07:58:16;9.06;91.83
12907;DHT22;6521;50.498;8.474;2023-04-21T08:00:47;9.08;92.01
12907;DHT22;6521;50.498;8.474;2023-04-21T08:03:20;9.15;92.00
12907;DHT22;6521;50.498;8.474;2023-04-21T08:05:51;9.19;91.89
12907;DHT22;6521;50.498;8.474;2023-04-21T08:08:22;9.24;91.89
12907;DHT22;6521;50.498;8.474;2023-04-21T08:10:53;9.31;91.80
12907;DHT22;6521;50.498;8.474;2023-04-21T08:13:24;9.40;91.96
12907;DHT22;6521;50.498;8.474;2023-04-21T08:15:55;9.47;91.73
12907;DHT22;6521;50.498;8.474;2023-04-21T08:18:26;9.55;91.61
12907;DHT22;6521;50.498;8.474;2023-04-21T08:20:57;9.68;91.52
12907;DHT22;6521;50.498;8.474;2023-04-21T08:23:27;9.81;91.47
12907;DHT22;6521;50.498;8.474;2023-04-21T08:26:01;9.97;91.31
12907;DHT22;6521;50.498;8.474;2023-04-21T08:28:32;10.06;90.90
12907;DHT22;6521;50.498;8.474;2023-04-21T08:31:03;10.16;90.48
12907;DHT22;6521;50.498;8.474;2023-04-21T08:33:34;10.20;90.23
12907;DHT22;6521;50.498;8.474;2023-04-21T08:36:05;10.25;89.81
12907;DHT22;6521;50.498;8.474;2023-04-21T08:38:37;10.35;89.96
12907;DHT22;6521;50.498;8.474;2023-04-21T08:41:08;10.46;89.90
12907;DHT22;6521;50.498;8.474;2023-04-21T08:43:39;10.59;89.59
12907;DHT22;6521;50.498;8.474;2023-04-21T08:46:11;10.67;89.57
12907;DHT22;6521;50.498;8.474;2023-04-21T08:48:42;10.84;89.28
12907;DHT22;6521;50.498;8.474;2023-04-21T08:51:21;10.98;88.80
12907;DHT22;6521;50.498;8.474;2023-04-21T08:53:55;11.08;88.53
12907;DHT22;6521;50.498;8.474;2023-04-21T08:56:26;11.11;88.25
12907;DHT22;6521;50.498;8.474;2023-04-21T08:58:57;11.17;87.98
12907;DHT22;6521;50.498;8.474;2023-04-21T09:01:29;11.24;87.73
12907;DHT22;6521;50.498;8.474;2023-04-21T09:04:16;11.36;87.60
12907;DHT22;6521;50.498;8.474;2023-04-21T09:06:47;11.47;87.74
12907;DHT22;6521;50.498;8.474;2023-04-21T09:09:18;11.61;87.10
12907;DHT22;6521;50.498;8.474;2023-04-21T09:11:56;11.89;86.71
12907;DHT22;6521;50.498;8.474;2023-04-21T09:14:30;12.20;86.33
12907;DHT22;6521;50.498;8.474;2023-04-21T09:17:03;12.33;84.56
12907;DHT22;6521;50.498;8.474;2023-04-21T09:19:34;12.42;84.76
12907;DHT22;6521;50.498;8.474;2023-04-21T09:22:05;12.49;83.78
12907;DHT22;6521;50.498;8.474;2023-04-21T09:24:36;12.41;82.56
12907;DHT22;6521;50.498;8.474;2023-04-21T09:27:15;12.27;83.40
12907;DHT22;6521;50.498;8.474;2023-04-21T09:29:52;12.14;82.83
12907;DHT22;6521;50.498;8.474;2023-04-21T09:32:24;12.16;83.16
12907;DHT22;6521;50.498;8.474;2023-04-21T09:34:59;12.21;83.33
12907;DHT22;6521;50.498;8.474;2023-04-21T09:37:31;12.21;83.22
12907;DHT22;6521;50.498;8.474;2023-04-21T09:40:04;12.20;83.49
12907;DHT22;6521;50.498;8.474;2023-04-21T09:42:35;12.13;82.53
12907;DHT22;6521;50.498;8.474;2023-04-21T09:45:07;12.13;82.43
12907;DHT22;6521;50.498;8.474;2023-04-21T09:47:48;12.21;82.68
12907;DHT22;6521;50.498;8.474;2023-04-21T09:50:22;12.18;82.67
12907;DHT22;6521;50.498;8.474;2023-04-21T09:52:54;12.16;82.33
12907;DHT22;6521;50.498;8.474;2023-04-21T09:55:27;12.12;81.97
12907;DHT22;6521;50.498;8.474;2023-04-21T09:57:59;12.12;82.44
12907;DHT22;6521;50.498;8.474;2023-04-21T10:00:32;12.14;82.67
12907;DHT22;6521;50.498;8.474;2023-04-21T10:03:04;12.16;81.95
12907;DHT22;6521;50.498;8.474;2023-04-21T10:05:36;12.16;82.40
12907;DHT22;6521;50.498;8.474;2023-04-21T10:08:07;12.08;81.90
12907;DHT22;6521;50.498;8.474;2023-04-21T10:10:41;12.03;82.40
12907;DHT22;6521;50.498;8.474;2023-04-21T10:13:13;12.01;82.47
12907;DHT22;6521;50.498;8.474;2023-04-21T10:15:46;11.98;82.97
12907;DHT22;6521;50.498;8.474;2023-04-21T10:18:19;11.89;83.10
12907;DHT22;6521;50.498;8.474;2023-04-21T10:26:09;11.87;83.24
12907;DHT22;6521;50.498;8.474;2023-04-21T10:29:00;11.77;83.42
12907;DHT22;6521;50.498;8.474;2023-04-21T10:31:36;11.73;83.58
12907;DHT22;6521;50.498;8.474;2023-04-21T10:39:27;12.31;83.10
12907;DHT22;6521;50.498;8.474;2023-04-21T10:47:38;13.03;78.62
12907;DHT22;6521;50.498;8.474;2023-04-21T10:50:21;13.20;77.63
12907;DHT22;6521;50.498;8.474;2023-04-21T10:53:07;13.37;76.42
12907;DHT22;6521;50.498;8.474;2023-04-21T10:55:39;13.47;77.20
12907;DHT22;6521;50.498;8.474;2023-04-21T10:58:14;13.47;77.16
12907;DHT22;6521;50.498;8.474;2023-04-21T11:00:46;13.39;77.39
12907;DHT22;6521;50.498;8.474;2023-04-21T11:03:22;13.28;76.77
12907;DHT22;6521;50.498;8.474;2023-04-21T11:05:55;13.40;78.05
12907;DHT22;6521;50.498;8.474;2023-04-21T11:08:26;13.47;77.26
12907;DHT22;6521;50.498;8.474;2023-04-21T11:10:57;13.48;77.19
12907;DHT22;6521;50.498;8.474;2023-04-21T11:13:27;13.51;76.07
12907;DHT22;6521;50.498;8.474;2023-04-21T11:16:06;13.65;76.34
12907;DHT22;6521;50.498;8.474;2023-04-21T11:18:37;13.95;75.95
12907;DHT22;6521;50.498;8.474;2023-04-21T11:21:17;14.25;75.16
12907;DHT22;6521;50.498;8.474;2023-04-21T11:26:31;14.67;74.11
12907;DHT22;6521;50.498;8.474;2023-04-21T11:29:04;15.05;73.80
12907;DHT22;6521;50.498;8.474;2023-04-21T11:31:40;15.09;71.19
12907;DHT22;6521;50.498;8.474;2023-04-21T11:34:11;14.85;70.59
12907;DHT22;6521;50.498;8.474;2023-04-21T11:36:43;14.74;73.11
12907;DHT22;6521;50.498;8.474;2023-04-21T11:39:17;14.74;72.43
12907;DHT22;6521;50.498;8.474;2023-04-21T11:41:50;14.76;71.71
12907;DHT22;6521;50.498;8.474;2023-04-21T11:44:40;14.74;72.24
12907;DHT22;6521;50.498;8.474;2023-04-21T11:47:18;14.80;71.08
12907;DHT22;6521;50.498;8.474;2023-04-21T11:49:54;14.92;70.88
12907;DHT22;6521;50.498;8.474;2023-04-21T11:52:32;14.91;72.35
12907;DHT22;6521;50.498;8.474;2023-04-21T11:55:12;14.91;72.15
12907;DHT22;6521;50.498;8.474;2023-04-21T11:57:44;14.84;71.91
12907;DHT22;6521;50.498;8.474;2023-04-21T12:00:16;14.80;72.76
12907;DHT22;6521;50.498;8.474;2023-04-21T12:02:54;14.74;72.21
12907;DHT22;6521;50.498;8.474;2023-04-21T12:05:34;14.56;72.38
12907;DHT22;6521;50.498;8.474;2023-04-21T12:08:05;14.50;71.92
12907;DHT22;6521;50.498;8.474;2023-04-21T12:10:37;14.44;73.03
12907;DHT22;6521;50.498;8.474;2023-04-21T12:13:07;14.39;72.22
12907;DHT22;6521;50.498;8.474;2023-04-21T12:15:43;14.28;72.32
12907;DHT22;6521;50.498;8.474;2023-04-21T12:18:14;14.22;73.19
12907;DHT22;6521;50.498;8.474;2023-04-21T12:20:49;14.16;73.54
12907;DHT22;6521;50.498;8.474;2023-04-21T12:23:20;14.06;73.24
12907;DHT22;6521;50.498;8.474;2023-04-21T12:25:51;14.04;73.35
12907;DHT22;6521;50.498;8.474;2023-04-21T12:28:22;14.04;74.00
12907;DHT22;6521;50.498;8.474;2023-04-21T12:30:53;13.98;73.37
12907;DHT22;6521;50.498;8.474;2023-04-21T12:33:24;14.08;73.77
12907;DHT22;6521;50.498;8.474;2023-04-21T12:35:55;14.04;73.77
12907;DHT22;6521;50.498;8.474;2023-04-21T12:38:26;13.88;73.66
12907;DHT22;6521;50.498;8.474;2023-04-21T12:40:56;13.77;73.55
12907;DHT22;6521;50.498;8.474;2023-04-21T12:43:28;13.85;74.19
12907;DHT22;6521;50.498;8.474;2023-04-21T12:45:58;13.86;73.95
12907;DHT22;6521;50.498;8.474;2023-04-21T12:48:29;13.99;74.56
12907;DHT22;6521;50.498;8.474;2023-04-21T12:51:00;14.16;74.13
12907;DHT22;6521;50.498;8.474;2023-04-21T12:53:31;14.34;73.16
12907;DHT22;6521;50.498;8.474;2023-04-21T12:56:02;14.47;72.32
12907;DHT22;6521;50.498;8.474;2023-04-21T12:58:33;14.67;72.67
12907;DHT22;6521;50.498;8.474;2023-04-21T13:01:05;14.81;72.31
12907;DHT22;6521;50.498;8.474;2023-04-21T13:03:36;14.90;71.77
12907;DHT22;6521;50.498;8.474;2023-04-21T13:06:07;14.99;72.10
12907;DHT22;6521;50.498;8.474;2023-04-21T13:08:38;15.04;71.46
12907;DHT22;6521;50.498;8.474;2023-04-21T13:11:09;15.12;71.01
12907;DHT22;6521;50.498;8.474;2023-04-21T13:13:40;15.27;71.06
12907;DHT22;6521;50.498;8.474;2023-04-21T13:16:11;15.40;70.25
12907;DHT22;6521;50.498;8.474;2023-04-21T13:18:44;15.55;68.59
12907;DHT22;6521;50.498;8.474;2023-04-21T13:21:15;15.73;70.13
12907;DHT22;6521;50.498;8.474;2023-04-21T13:23:46;16.18;68.02
12907;DHT22;6521;50.498;8.474;2023-04-21T13:26:17;16.72;67.75
12907;DHT22;6521;50.498;8.474;2023-04-21T13:28:48;17.00;65.83
12907;DHT22;6521;50.498;8.474;2023-04-21T13:31:19;17.09;65.02
12907;DHT22;6521;50.498;8.474;2023-04-21T13:33:50;16.90;64.65
12907;DHT22;6521;50.498;8.474;2023-04-21T13:36:21;16.76;64.86
12907;DHT22;6521;50.498;8.474;2023-04-21T13:38:52;16.89;65.76
12907;DHT22;6521;50.498;8.474;2023-04-21T13:41:25;17.37;63.90
12907;DHT22;6521;50.498;8.474;2023-04-21T13:43:56;17.77;63.68
12907;DHT22;6521;50.498;8.474;2023-04-21T13:46:27;18.34;61.53
12907;DHT22;6521;50.498;8.474;2023-04-21T13:48:58;18.72;58.54
12907;DHT22;6521;50.498;8.474;2023-04-21T13:51:29;18.92;60.80
12907;DHT22;6521;50.498;8.474;2023-04-21T13:53:59;19.42;59.23
12907;DHT22;6521;50.498;8.474;2023-04-21T13:56:30;19.70;57.46
12907;DHT22;6521;50.498;8.474;2023-04-21T13:59:01;19.70;55.49
12907;DHT22;6521;50.498;8.474;2023-04-21T14:01:32;19.59;57.40
12907;DHT22;6521;50.498;8.474;2023-04-21T14:04:03;19.77;56.06
12907;DHT22;6521;50.498;8.474;2023-04-21T14:06:34;19.91;54.95
12907;DHT22;6521;50.498;8.474;2023-04-21T14:09:05;19.88;54.09
12907;DHT22;6521;50.498;8.474;2023-04-21T14:11:35;19.98;55.77
12907;DHT22;6521;50.498;8.474;2023-04-21T14:14:06;20.03;55.18
12907;DHT22;6521;50.498;8.474;2023-04-21T14:16:37;20.04;53.16
12907;DHT22;6521;50.498;8.474;2023-04-21T14:19:08;19.96;53.46
12907;DHT22;6521;50.498;8.474;2023-04-21T14:21:40;20.00;54.32
12907;DHT22;6521;50.498;8.474;2023-04-21T14:24:11;20.16;53.08
12907;DHT22;6521;50.498;8.474;2023-04-21T14:26:41;20.17;53.33
12907;DHT22;6521;50.498;8.474;2023-04-21T14:29:12;20.10;52.63
12907;DHT22;6521;50.498;8.474;2023-04-21T14:31:43;20.04;53.63
12907;DHT22;6521;50.498;8.474;2023-04-21T14:34:14;20.00;50.83
12907;DHT22;6521;50.498;8.474;2023-04-21T14:36:45;19.77;53.03
12907;DHT22;6521;50.498;8.474;2023-04-21T14:39:19;19.63;54.68
12907;DHT22;6521;50.498;8.474;2023-04-21T14:41:50;19.76;53.40
12907;DHT22;6521;50.498;8.474;2023-04-21T14:44:21;19.97;54.34
12907;DHT22;6521;50.498;8.474;2023-04-21T14:46:52;20.25;53.84
12907;DHT22;6521;50.498;8.474;2023-04-21T14:49:23;20.20;52.42
12907;DHT22;6521;50.498;8.474;2023-04-21T14:51:54;20.14;51.88
12907;DHT22;6521;50.498;8.474;2023-04-21T14:54:25;20.22;51.60
12907;DHT22;6521;50.498;8.474;2023-04-21T14:56:58;20.25;51.71
12907;DHT22;6521;50.498;8.474;2023-04-21T14:59:31;20.04;51.50
12907;DHT22;6521;50.498;8.474;2023-04-21T15:02:03;19.81;52.69
12907;DHT22;6521;50.498;8.474;2023-04-21T15:04:34;19.76;52.71
12907;DHT22;6521;50.498;8.474;2023-04-21T15:07:05;19.88;52.09
12907;DHT22;6521;50.498;8.474;2023-04-21T15:09:36;20.10;51.92
12907;DHT22;6521;50.498;8.474;2023-04-21T15:12:08;20.04;52.37
12907;DHT22;6521;50.498;8.474;2023-04-21T15:14:40;19.88;52.00
12907;DHT22;6521;50.498;8.474;2023-04-21T15:17:10;19.66;52.69
12907;DHT22;6521;50.498;8.474;2023-04-21T15:19:41;19.70;53.56
12907;DHT22;6521;50.498;8.474;2023-04-21T15:22:12;19.71;53.56
12907;DHT22;6521;50.498;8.474;2023-04-21T15:24:44;19.66;53.02
12907;DHT22;6521;50.498;8.474;2023-04-21T15:27:15;19.63;53.46
12907;DHT22;6521;50.498;8.474;2023-04-21T15:29:47;19.63;53.28
12907;DHT22;6521;50.498;8.474;2023-04-21T15:32:18;19.67;53.84
12907;DHT22;6521;50.498;8.474;2023-04-21T15:34:49;19.59;51.72
12907;DHT22;6521;50.498;8.474;2023-04-21T15:37:20;19.60;53.27
12907;DHT22;6521;50.498;8.474;2023-04-21T15:39:51;19.59;53.83
12907;DHT22;6521;50.498;8.474;2023-04-21T15:42:21;19.42;54.39
12907;DHT22;6521;50.498;8.474;2023-04-21T15:44:53;19.48;54.72
12907;DHT22;6521;50.498;8.474;2023-04-21T15:47:25;19.53;54.09
12907;DHT22;6521;50.498;8.474;2023-04-21T15:49:56;19.30;54.27
12907;DHT22;6521;50.498;8.474;2023-04-21T15:52:27;19.21;54.19
12907;DHT22;6521;50.498;8.474;2023-04-21T15:54:58;19.28;54.77
12907;DHT22;6521;50.498;8.474;2023-04-21T15:57:29;19.36;54.10
12907;DHT22;6521;50.498;8.474;2023-04-21T16:00:00;19.36;54.38
12907;DHT22;6521;50.498;8.474;2023-04-21T16:02:34;19.48;54.72
12907;DHT22;6521;50.498;8.474;2023-04-21T16:05:05;19.21;54.95
12907;DHT22;6521;50.498;8.474;2023-04-21T16:07:35;19.15;54.03
12907;DHT22;6521;50.498;8.474;2023-04-21T16:10:07;19.08;55.66
12907;DHT22;6521;50.498;8.474;2023-04-21T16:12:38;19.00;54.95
12907;DHT22;6521;50.498;8.474;2023-04-21T16:15:09;19.07;55.69
12907;DHT22;6521;50.498;8.474;2023-04-21T16:17:41;18.90;55.58
12907;DHT22;6521;50.498;8.474;2023-04-21T16:20:12;18.80;56.95
12907;DHT22;6521;50.498;8.474;2023-04-21T16:22:43;18.75;56.90
12907;DHT22;6521;50.498;8.474;2023-04-21T16:25:14;18.65;57.11
12907;DHT22;6521;50.498;8.474;2023-04-21T16:27:47;18.53;57.42
12907;DHT22;6521;50.498;8.474;2023-04-21T16:30:18;18.43;58.22
12907;DHT22;6521;50.498;8.474;2023-04-21T16:32:48;18.36;58.57
12907;DHT22;6521;50.498;8.474;2023-04-21T16:35:19;18.28;58.54
12907;DHT22;6521;50.498;8.474;2023-04-21T16:37:50;18.16;58.54
12907;DHT22;6521;50.498;8.474;2023-04-21T16:40:21;18.13;58.91
12907;DHT22;6521;50.498;8.474;2023-04-21T16:42:53;18.05;59.50